sensor_id;sensor_type;location;lat;lon;timestamp;pressure;altitude;pressure_sealevel;temperature;humidity
17855;BME280;9053;53.358;6.382;2023-05-24T00:02:11;102329.75;;;12.18;89.28
17855;BME280;9053;53.358;6.382;2023-05-24T00:04:42;102329.00;;;12.20;89.21
17855;BME280;9053;53.358;6.382;2023-05-24T00:07:19;102321.91;;;12.19;88.94
17855;BME280;9053;53.358;6.382;2023-05-24T00:09:49;102330.66;;;12.18;88.84
17855;BME280;9053;53.358;6.382;2023-05-24T00:12:22;102333.16;;;12.15;88.90
17855;BME280;9053;53.358;6.382;2023-05-24T00:14:51;102321.00;;;12.19;88.48
17855;BME280;9053;53.358;6.382;2023-05-24T00:17:21;102326.13;;;12.16;88.28
17855;BME280;9053;53.358;6.382;2023-05-24T00:20:02;102327.94;;;12.17;87.98
17855;BME280;9053;53.358;6.382;2023-05-24T00:22:33;102329.66;;;12.16;87.97
17855;BME280;9053;53.358;6.382;2023-05-24T00:25:04;102323.59;;;12.17;87.90
17855;BME280;9053;53.358;6.382;2023-05-24T00:27:36;102325.28;;;12.17;87.95
17855;BME280;9053;53.358;6.382;2023-05-24T00:30:07;102326.22;;;12.17;87.99
17855;BME280;9053;53.358;6.382;2023-05-24T00:32:37;102322.50;;;12.13;88.24
17855;BME280;9053;53.358;6.382;2023-05-24T00:35:07;102322.75;;;12.18;88.49
17855;BME280;9053;53.358;6.382;2023-05-24T00:37:37;102319.22;;;12.18;88.33
17855;BME280;9053;53.358;6.382;2023-05-24T00:40:15;102320.09;;;12.18;88.23
17855;BME280;9053;53.358;6.382;2023-05-24T00:42:47;102316.47;;;12.16;88.26
17855;BME280;9053;53.358;6.382;2023-05-24T00:45:18;102319.06;;;12.15;88.19
17855;BME280;9053;53.358;6.382;2023-05-24T00:47:48;102316.31;;;12.13;88.46
17855;BME280;9053;53.358;6.382;2023-05-24T00:50:18;102314.00;;;12.19;88.68
17855;BME280;9053;53.358;6.382;2023-05-24T00:52:48;102318.38;;;12.19;88.73
17855;BME280;9053;53.358;6.382;2023-05-24T00:55:20;102315.72;;;12.19;88.90
17855;BME280;9053;53.358;6.382;2023-05-24T00:57:52;102320.25;;;12.21;88.90
17855;BME280;9053;53.358;6.382;2023-05-24T01:00:24;102318.31;;;12.17;89.03
17855;BME280;9053;53.358;6.382;2023-05-24T01:02:54;102307.91;;;12.20;89.15
17855;BME280;9053;53.358;6.382;2023-05-24T01:05:24;102303.38;;;12.18;88.86
17855;BME280;9053;53.358;6.382;2023-05-24T01:08:02;102304.13;;;12.15;88.85
17855;BME280;9053;53.358;6.382;2023-05-24T01:10:39;102304.94;;;12.14;89.03
17855;BME280;9053;53.358;6.382;2023-05-24T01:13:23;102299.44;;;12.09;88.86
17855;BME280;9053;53.358;6.382;2023-05-24T01:15:59;102301.09;;;12.07;88.72
17855;BME280;9053;53.358;6.382;2023-05-24T01:18:33;102304.69;;;12.09;88.81
17855;BME280;9053;53.358;6.382;2023-05-24T01:21:12;102305.44;;;12.07;88.32
17855;BME280;9053;53.358;6.382;2023-05-24T01:23:53;102304.50;;;12.05;87.94
17855;BME280;9053;53.358;6.382;2023-05-24T01:26:36;102301.47;;;11.97;87.45
17855;BME280;9053;53.358;6.382;2023-05-24T01:29:09;102297.91;;;11.97;87.34
17855;BME280;9053;53.358;6.382;2023-05-24T01:31:41;102302.88;;;11.90;87.64
17855;BME280;9053;53.358;6.382;2023-05-24T01:34:11;102301.97;;;11.90;87.85
17855;BME280;9053;53.358;6.382;2023-05-24T01:36:41;102296.69;;;11.90;87.94
17855;BME280;9053;53.358;6.382;2023-05-24T01:39:14;102299.41;;;11.91;88.34
17855;BME280;9053;53.358;6.382;2023-05-24T01:41:48;102290.59;;;11.91;88.63
17855;BME280;9053;53.358;6.382;2023-05-24T01:44:28;102284.50;;;11.92;88.51
17855;BME280;9053;53.358;6.382;2023-05-24T01:47:03;102291.44;;;11.90;88.38
17855;BME280;9053;53.358;6.382;2023-05-24T01:49:49;102292.22;;;11.89;88.52
17855;BME280;9053;53.358;6.382;2023-05-24T01:52:21;102287.72;;;11.86;88.62
17855;BME280;9053;53.358;6.382;2023-05-24T01:54:53;102283.25;;;11.85;88.99
17855;BME280;9053;53.358;6.382;2023-05-24T01:57:25;102289.69;;;11.90;88.92
17855;BME280;9053;53.358;6.382;2023-05-24T02:00:01;102282.75;;;11.93;89.00
17855;BME280;9053;53.358;6.382;2023-05-24T02:02:31;102288.28;;;11.97;89.19
17855;BME280;9053;53.358;6.382;2023-05-24T02:05:02;102290.22;;;12.01;89.15
17855;BME280;9053;53.358;6.382;2023-05-24T02:07:32;102297.16;;;11.99;89.05
17855;BME280;9053;53.358;6.382;2023-05-24T02:10:03;102289.19;;;11.98;88.92
17855;BME280;9053;53.358;6.382;2023-05-24T02:12:33;102296.25;;;11.99;89.11
17855;BME280;9053;53.358;6.382;2023-05-24T02:15:07;102294.84;;;12.05;89.17
17855;BME280;9053;53.358;6.382;2023-05-24T02:17:37;102294.16;;;12.09;89.34
17855;BME280;9053;53.358;6.382;2023-05-24T02:20:10;102287.22;;;12.11;89.48
17855;BME280;9053;53.358;6.382;2023-05-24T02:22:40;102284.06;;;12.19;89.45
17855;BME280;9053;53.358;6.382;2023-05-24T02:25:10;102286.72;;;12.19;89.37
17855;BME280;9053;53.358;6.382;2023-05-24T02:27:40;102289.44;;;12.20;89.25
17855;BME280;9053;53.358;6.382;2023-05-24T02:30:15;102287.56;;;12.18;89.54
17855;BME280;9053;53.358;6.382;2023-05-24T02:32:45;102288.59;;;12.21;89.56
17855;BME280;9053;53.358;6.382;2023-05-24T02:35:22;102289.50;;;12.22;89.47
17855;BME280;9053;53.358;6.382;2023-05-24T02:38:01;102286.84;;;12.22;89.60
17855;BME280;9053;53.358;6.382;2023-05-24T02:40:32;102284.22;;;12.22;89.53
17855;BME280;9053;53.358;6.382;2023-05-24T02:43:02;102283.31;;;12.21;89.39
17855;BME280;9053;53.358;6.382;2023-05-24T02:45:38;102288.59;;;12.21;89.41
17855;BME280;9053;53.358;6.382;2023-05-24T02:48:16;102288.84;;;12.26;89.61
17855;BME280;9053;53.358;6.382;2023-05-24T02:51:02;102288.69;;;12.23;89.42
17855;BME280;9053;53.358;6.382;2023-05-24T02:53:34;102281.59;;;12.22;89.54
17855;BME280;9053;53.358;6.382;2023-05-24T02:56:05;102287.19;;;12.28;89.64
17855;BME280;9053;53.358;6.382;2023-05-24T02:58:39;102281.00;;;12.27;89.58
17855;BME280;9053;53.358;6.382;2023-05-24T03:01:21;102284.56;;;12.28;89.52
17855;BME280;9053;53.358;6.382;2023-05-24T03:03:51;102281.97;;;12.29;89.53
17855;BME280;9053;53.358;6.382;2023-05-24T03:06:22;102269.72;;;12.30;89.52
17855;BME280;9053;53.358;6.382;2023-05-24T03:08:54;102280.25;;;12.30;89.53
17855;BME280;9053;53.358;6.382;2023-05-24T03:11:30;102283.56;;;12.26;89.52
17855;BME280;9053;53.358;6.382;2023-05-24T03:14:04;102273.84;;;12.25;89.75
17855;BME280;9053;53.358;6.382;2023-05-24T03:16:44;102268.63;;;12.26;89.97
17855;BME280;9053;53.358;6.382;2023-05-24T03:19:17;102265.25;;;12.29;90.07
17855;BME280;9053;53.358;6.382;2023-05-24T03:21:57;102265.38;;;12.32;89.97
17855;BME280;9053;53.358;6.382;2023-05-24T03:24:27;102282.16;;;12.32;89.87
17855;BME280;9053;53.358;6.382;2023-05-24T03:26:57;102275.19;;;12.34;89.81
17855;BME280;9053;53.358;6.382;2023-05-24T03:29:37;102262.91;;;12.35;89.52
17855;BME280;9053;53.358;6.382;2023-05-24T03:32:10;102259.91;;;12.27;89.60
17855;BME280;9053;53.358;6.382;2023-05-24T03:34:40;102258.06;;;12.26;89.75
17855;BME280;9053;53.358;6.382;2023-05-24T03:37:13;102256.19;;;12.24;89.89
17855;BME280;9053;53.358;6.382;2023-05-24T03:39:46;102252.81;;;12.26;90.18
17855;BME280;9053;53.358;6.382;2023-05-24T03:42:18;102252.03;;;12.29;90.08
17855;BME280;9053;53.358;6.382;2023-05-24T03:44:48;102263.44;;;12.28;90.17
17855;BME280;9053;53.358;6.382;2023-05-24T03:47:21;102260.66;;;12.25;90.19
17855;BME280;9053;53.358;6.382;2023-05-24T03:49:55;102262.38;;;12.24;90.19
17855;BME280;9053;53.358;6.382;2023-05-24T03:52:30;102260.81;;;12.28;90.21
17855;BME280;9053;53.358;6.382;2023-05-24T03:55:02;102266.09;;;12.28;90.27
17855;BME280;9053;53.358;6.382;2023-05-24T03:57:32;102258.91;;;12.25;90.27
17855;BME280;9053;53.358;6.382;2023-05-24T04:00:03;102262.38;;;12.24;90.42
17855;BME280;9053;53.358;6.382;2023-05-24T04:02:42;102268.63;;;12.26;90.60
17855;BME280;9053;53.358;6.382;2023-05-24T04:12:48;102278.38;;;12.27;90.63
17855;BME280;9053;53.358;6.382;2023-05-24T04:15:52;102273.09;;;12.27;90.55
17855;BME280;9053;53.358;6.382;2023-05-24T04:21:49;102273.09;;;12.27;90.58
17855;BME280;9053;53.358;6.382;2023-05-24T04:24:21;102269.84;;;12.33;90.55
17855;BME280;9053;53.358;6.382;2023-05-24T04:26:53;102276.13;;;12.35;90.40
17855;BME280;9053;53.358;6.382;2023-05-24T04:29:31;102280.25;;;12.30;90.47
17855;BME280;9053;53.358;6.382;2023-05-24T04:32:04;102285.72;;;12.34;90.57
17855;BME280;9053;53.358;6.382;2023-05-24T04:34:38;102283.78;;;12.30;90.65
17855;BME280;9053;53.358;6.382;2023-05-24T04:37:15;102288.94;;;12.27;90.82
17855;BME280;9053;53.358;6.382;2023-05-24T04:39:46;102288.69;;;12.23;90.95
17855;BME280;9053;53.358;6.382;2023-05-24T04:55:43;102308.66;;;12.36;91.19
17855;BME280;9053;53.358;6.382;2023-05-24T04:58:13;102321.03;;;12.37;91.12
17855;BME280;9053;53.358;6.382;2023-05-24T05:00:45;102317.34;;;12.33;91.07
17855;BME280;9053;53.358;6.382;2023-05-24T05:03:17;102308.34;;;12.29;91.27
17855;BME280;9053;53.358;6.382;2023-05-24T05:05:56;102310.97;;;12.29;91.50
17855;BME280;9053;53.358;6.382;2023-05-24T05:15:24;102318.63;;;12.41;92.19
17855;BME280;9053;53.358;6.382;2023-05-24T05:17:54;102321.34;;;12.43;92.30
17855;BME280;9053;53.358;6.382;2023-05-24T05:20:24;102318.00;;;12.47;92.46
17855;BME280;9053;53.358;6.382;2023-05-24T05:22:54;102321.78;;;12.52;92.51
17855;BME280;9053;53.358;6.382;2023-05-24T05:25:24;102323.66;;;12.54;92.72
17855;BME280;9053;53.358;6.382;2023-05-24T05:27:55;102331.00;;;12.60;92.67
17855;BME280;9053;53.358;6.382;2023-05-24T05:30:28;102313.84;;;12.70;92.63
17855;BME280;9053;53.358;6.382;2023-05-24T05:32:58;102342.00;;;12.69;92.38
17855;BME280;9053;53.358;6.382;2023-05-24T05:35:28;102330.69;;;12.72;92.27
17855;BME280;9053;53.358;6.382;2023-05-24T05:37:58;102333.41;;;12.73;92.12
17855;BME280;9053;53.358;6.382;2023-05-24T05:40:28;102333.53;;;12.76;92.05
17855;BME280;9053;53.358;6.382;2023-05-24T05:42:58;102324.47;;;12.89;92.04
17855;BME280;9053;53.358;6.382;2023-05-24T05:45:31;102334.06;;;12.87;91.75
17855;BME280;9053;53.358;6.382;2023-05-24T05:48:01;102328.63;;;12.84;91.38
17855;BME280;9053;53.358;6.382;2023-05-24T05:50:32;102335.94;;;12.90;90.72
17855;BME280;9053;53.358;6.382;2023-05-24T05:53:02;102326.00;;;12.84;90.22
17855;BME280;9053;53.358;6.382;2023-05-24T05:55:32;102326.09;;;12.86;90.09
17855;BME280;9053;53.358;6.382;2023-05-24T05:58:02;102327.97;;;12.88;89.47
17855;BME280;9053;53.358;6.382;2023-05-24T06:00:37;102321.69;;;12.86;89.27
17855;BME280;9053;53.358;6.382;2023-05-24T06:03:09;102334.44;;;12.95;88.97
17855;BME280;9053;53.358;6.382;2023-05-24T06:05:42;102330.84;;;12.93;88.75
17855;BME280;9053;53.358;6.382;2023-05-24T06:08:12;102329.00;;;12.92;88.37
17855;BME280;9053;53.358;6.382;2023-05-24T06:10:45;102327.22;;;12.91;88.12
17855;BME280;9053;53.358;6.382;2023-05-24T06:13:22;102333.84;;;13.01;87.96
17855;BME280;9053;53.358;6.382;2023-05-24T06:15:58;102336.53;;;13.02;87.44
17855;BME280;9053;53.358;6.382;2023-05-24T06:18:29;102339.13;;;13.01;86.98
17855;BME280;9053;53.358;6.382;2023-05-24T06:21:00;102348.75;;;13.00;86.71
17855;BME280;9053;53.358;6.382;2023-05-24T06:23:34;102341.06;;;13.05;86.60
17855;BME280;9053;53.358;6.382;2023-05-24T06:26:06;102343.03;;;13.09;86.58
17855;BME280;9053;53.358;6.382;2023-05-24T06:28:37;102345.00;;;13.13;86.81
17855;BME280;9053;53.358;6.382;2023-05-24T06:31:09;102336.50;;;13.20;86.95
17855;BME280;9053;53.358;6.382;2023-05-24T06:33:41;102342.84;;;13.24;86.91
17855;BME280;9053;53.358;6.382;2023-05-24T06:36:21;102336.66;;;13.23;87.13
17855;BME280;9053;53.358;6.382;2023-05-24T06:38:52;102338.75;;;13.30;87.39
17855;BME280;9053;53.358;6.382;2023-05-24T06:41:22;102336.47;;;13.38;87.67
17855;BME280;9053;53.358;6.382;2023-05-24T06:43:52;102331.75;;;13.50;87.63
17855;BME280;9053;53.358;6.382;2023-05-24T06:46:25;102326.81;;;13.58;87.87
17855;BME280;9053;53.358;6.382;2023-05-24T06:48:55;102330.31;;;13.76;87.65
17855;BME280;9053;53.358;6.382;2023-05-24T06:51:25;102326.13;;;13.81;87.45
17855;BME280;9053;53.358;6.382;2023-05-24T06:53:56;102330.84;;;13.89;87.43
17855;BME280;9053;53.358;6.382;2023-05-24T06:56:26;102335.41;;;13.93;87.02
17855;BME280;9053;53.358;6.382;2023-05-24T06:58:58;102336.19;;;13.90;86.94
17855;BME280;9053;53.358;6.382;2023-05-24T07:01:30;102335.41;;;13.93;87.06
17855;BME280;9053;53.358;6.382;2023-05-24T07:04:03;102334.16;;;14.04;87.01
17855;BME280;9053;53.358;6.382;2023-05-24T07:06:33;102333.72;;;14.14;86.76
17855;BME280;9053;53.358;6.382;2023-05-24T07:09:03;102340.94;;;14.18;86.55
17855;BME280;9053;53.358;6.382;2023-05-24T07:11:33;102342.09;;;14.25;86.23
17855;BME280;9053;53.358;6.382;2023-05-24T07:14:09;102341.72;;;14.37;85.84
17855;BME280;9053;53.358;6.382;2023-05-24T07:16:42;102342.16;;;14.47;85.37
17855;BME280;9053;53.358;6.382;2023-05-24T07:19:12;102339.09;;;14.58;85.20
17855;BME280;9053;53.358;6.382;2023-05-24T07:21:43;102341.09;;;14.63;84.81
17855;BME280;9053;53.358;6.382;2023-05-24T07:24:13;102343.94;;;14.68;84.39
17855;BME280;9053;53.358;6.382;2023-05-24T07:26:43;102348.84;;;14.59;83.80
17855;BME280;9053;53.358;6.382;2023-05-24T07:29:13;102352.41;;;14.59;83.82
17855;BME280;9053;53.358;6.382;2023-05-24T07:31:48;102352.97;;;14.52;83.81
17855;BME280;9053;53.358;6.382;2023-05-24T07:34:18;102357.97;;;14.46;83.68
17855;BME280;9053;53.358;6.382;2023-05-24T07:36:49;102348.31;;;14.46;83.96
17855;BME280;9053;53.358;6.382;2023-05-24T07:39:19;102349.78;;;14.59;83.88
17855;BME280;9053;53.358;6.382;2023-05-24T07:41:51;102354.38;;;14.86;83.30
17855;BME280;9053;53.358;6.382;2023-05-24T07:44:21;102350.41;;;14.97;82.34
17855;BME280;9053;53.358;6.382;2023-05-24T07:46:54;102355.22;;;15.07;81.64
17855;BME280;9053;53.358;6.382;2023-05-24T07:49:24;102352.31;;;15.24;81.88
17855;BME280;9053;53.358;6.382;2023-05-24T07:51:54;102359.13;;;15.40;81.24
17855;BME280;9053;53.358;6.382;2023-05-24T07:54:25;102351.69;;;15.53;81.09
17855;BME280;9053;53.358;6.382;2023-05-24T07:56:55;102357.94;;;15.78;80.75
17855;BME280;9053;53.358;6.382;2023-05-24T07:59:25;102366.63;;;15.98;80.06
17855;BME280;9053;53.358;6.382;2023-05-24T08:01:57;102363.38;;;16.07;79.47
17855;BME280;9053;53.358;6.382;2023-05-24T08:04:32;102368.97;;;16.14;78.73
17855;BME280;9053;53.358;6.382;2023-05-24T08:07:03;102366.38;;;16.16;77.75
17855;BME280;9053;53.358;6.382;2023-05-24T08:09:36;102371.63;;;16.14;77.13
17855;BME280;9053;53.358;6.382;2023-05-24T08:12:06;102370.34;;;16.03;76.80
17855;BME280;9053;53.358;6.382;2023-05-24T08:14:36;102366.84;;;16.04;76.50
17855;BME280;9053;53.358;6.382;2023-05-24T08:17:10;102359.47;;;15.95;76.73
17855;BME280;9053;53.358;6.382;2023-05-24T08:19:39;102369.13;;;15.93;77.04
17855;BME280;9053;53.358;6.382;2023-05-24T08:22:09;102372.84;;;15.98;76.89
17855;BME280;9053;53.358;6.382;2023-05-24T08:24:41;102379.72;;;15.93;76.42
17855;BME280;9053;53.358;6.382;2023-05-24T08:27:11;102380.44;;;15.89;76.14
17855;BME280;9053;53.358;6.382;2023-05-24T08:29:41;102381.25;;;15.64;75.84
17855;BME280;9053;53.358;6.382;2023-05-24T08:32:13;102386.25;;;15.55;76.50
17855;BME280;9053;53.358;6.382;2023-05-24T08:34:43;102384.66;;;15.60;76.81
17855;BME280;9053;53.358;6.382;2023-05-24T08:37:13;102388.94;;;15.56;77.05
17855;BME280;9053;53.358;6.382;2023-05-24T08:39:48;102392.53;;;15.58;77.42
17855;BME280;9053;53.358;6.382;2023-05-24T08:42:20;102395.97;;;15.56;77.47
17855;BME280;9053;53.358;6.382;2023-05-24T08:44:57;102402.97;;;15.54;77.09
17855;BME280;9053;53.358;6.382;2023-05-24T08:47:31;102414.47;;;15.54;77.44
17855;BME280;9053;53.358;6.382;2023-05-24T08:50:01;102405.50;;;15.51;78.02
17855;BME280;9053;53.358;6.382;2023-05-24T08:52:32;102408.34;;;15.55;78.54
17855;BME280;9053;53.358;6.382;2023-05-24T08:55:03;102412.19;;;15.64;78.77
17855;BME280;9053;53.358;6.382;2023-05-24T08:57:34;102419.50;;;15.69;78.62
17855;BME280;9053;53.358;6.382;2023-05-24T09:00:09;102417.56;;;15.65;78.47
17855;BME280;9053;53.358;6.382;2023-05-24T09:02:42;102419.56;;;15.71;78.70
17855;BME280;9053;53.358;6.382;2023-05-24T09:05:14;102420.47;;;15.71;79.07
17855;BME280;9053;53.358;6.382;2023-05-24T09:07:48;102415.28;;;15.74;79.23
17855;BME280;9053;53.358;6.382;2023-05-24T09:10:19;102421.50;;;15.75;79.42
17855;BME280;9053;53.358;6.382;2023-05-24T09:12:54;102420.31;;;15.68;79.23
17855;BME280;9053;53.358;6.382;2023-05-24T09:15:26;102425.34;;;15.61;79.05
17855;BME280;9053;53.358;6.382;2023-05-24T09:17:58;102426.00;;;15.55;79.17
17855;BME280;9053;53.358;6.382;2023-05-24T09:20:29;102425.84;;;15.50;78.79
17855;BME280;9053;53.358;6.382;2023-05-24T09:23:01;102423.97;;;15.48;78.67
17855;BME280;9053;53.358;6.382;2023-05-24T09:25:33;102433.66;;;15.47;79.01
17855;BME280;9053;53.358;6.382;2023-05-24T09:28:05;102426.63;;;15.48;79.19
17855;BME280;9053;53.358;6.382;2023-05-24T09:30:35;102426.53;;;15.46;79.05
17855;BME280;9053;53.358;6.382;2023-05-24T09:33:08;102426.53;;;15.46;78.73
17855;BME280;9053;53.358;6.382;2023-05-24T09:35:41;102418.41;;;15.42;78.74
17855;BME280;9053;53.358;6.382;2023-05-24T09:38:15;102428.97;;;15.40;78.87
17855;BME280;9053;53.358;6.382;2023-05-24T09:40:46;102422.63;;;15.36;79.04
17855;BME280;9053;53.358;6.382;2023-05-24T09:43:26;102424.44;;;15.38;79.72
17855;BME280;9053;53.358;6.382;2023-05-24T09:45:56;102424.50;;;15.39;80.24
17855;BME280;9053;53.358;6.382;2023-05-24T09:48:30;102423.53;;;15.37;80.75
17855;BME280;9053;53.358;6.382;2023-05-24T09:51:03;102424.25;;;15.33;81.10
17855;BME280;9053;53.358;6.382;2023-05-24T09:53:36;102423.53;;;15.37;81.63
17855;BME280;9053;53.358;6.382;2023-05-24T09:56:06;102421.84;;;15.39;82.03
17855;BME280;9053;53.358;6.382;2023-05-24T09:58:38;102414.97;;;15.44;82.51
17855;BME280;9053;53.358;6.382;2023-05-24T10:01:09;102422.44;;;15.54;82.78
17855;BME280;9053;53.358;6.382;2023-05-24T10:03:53;102412.19;;;15.64;82.68
17855;BME280;9053;53.358;6.382;2023-05-24T10:06:24;102417.59;;;15.67;82.32
17855;BME280;9053;53.358;6.382;2023-05-24T10:08:54;102428.03;;;15.62;81.89
17855;BME280;9053;53.358;6.382;2023-05-24T10:11:25;102420.84;;;15.59;82.26
17855;BME280;9053;53.358;6.382;2023-05-24T10:13:56;102418.50;;;15.67;82.41
17855;BME280;9053;53.358;6.382;2023-05-24T10:16:28;102407.28;;;15.73;81.85
17855;BME280;9053;53.358;6.382;2023-05-24T10:19:00;102412.28;;;15.67;81.67
17855;BME280;9053;53.358;6.382;2023-05-24T10:21:31;102415.81;;;15.66;81.44
17855;BME280;9053;53.358;6.382;2023-05-24T10:24:02;102425.78;;;15.71;81.63
17855;BME280;9053;53.358;6.382;2023-05-24T10:26:37;102425.34;;;15.83;81.46
17855;BME280;9053;53.358;6.382;2023-05-24T10:29:11;102414.94;;;15.89;81.12
17855;BME280;9053;53.358;6.382;2023-05-24T10:31:45;102420.94;;;16.08;81.04
17855;BME280;9053;53.358;6.382;2023-05-24T10:34:19;102421.06;;;16.11;80.97
17855;BME280;9053;53.358;6.382;2023-05-24T10:36:49;102420.25;;;16.13;80.79
17855;BME280;9053;53.358;6.382;2023-05-24T10:39:21;102432.06;;;16.21;81.23
17855;BME280;9053;53.358;6.382;2023-05-24T10:41:54;102414.38;;;16.22;80.98
17855;BME280;9053;53.358;6.382;2023-05-24T10:44:28;102417.38;;;16.33;81.03
17855;BME280;9053;53.358;6.382;2023-05-24T10:47:11;102411.50;;;16.41;80.78
17855;BME280;9053;53.358;6.382;2023-05-24T10:49:50;102408.13;;;16.46;79.93
17855;BME280;9053;53.358;6.382;2023-05-24T10:52:20;102413.31;;;16.42;79.68
17855;BME280;9053;53.358;6.382;2023-05-24T10:55:11;102422.47;;;16.51;79.20
17855;BME280;9053;53.358;6.382;2023-05-24T10:57:41;102407.59;;;16.56;78.21
17855;BME280;9053;53.358;6.382;2023-05-24T11:00:26;102410.13;;;16.53;77.59
17855;BME280;9053;53.358;6.382;2023-05-24T11:03:00;102416.22;;;16.50;77.78
17855;BME280;9053;53.358;6.382;2023-05-24T11:05:49;102420.63;;;16.48;78.40
17855;BME280;9053;53.358;6.382;2023-05-24T11:08:29;102409.19;;;16.51;78.89
17855;BME280;9053;53.358;6.382;2023-05-24T11:11:06;102411.06;;;16.55;78.88
17855;BME280;9053;53.358;6.382;2023-05-24T11:13:40;102414.69;;;16.57;78.77
17855;BME280;9053;53.358;6.382;2023-05-24T11:16:33;102415.44;;;16.53;78.28
17855;BME280;9053;53.358;6.382;2023-05-24T11:19:13;102414.38;;;16.48;78.48
17855;BME280;9053;53.358;6.382;2023-05-24T11:21:48;102424.25;;;16.52;78.48
17855;BME280;9053;53.358;6.382;2023-05-24T11:24:20;102418.16;;;16.54;78.53
17855;BME280;9053;53.358;6.382;2023-05-24T11:26:51;102417.44;;;16.60;79.04
17855;BME280;9053;53.358;6.382;2023-05-24T11:29:23;102420.53;;;16.72;79.00
17855;BME280;9053;53.358;6.382;2023-05-24T11:31:54;102429.19;;;16.66;78.57
17855;BME280;9053;53.358;6.382;2023-05-24T11:34:27;102421.38;;;16.71;78.88
17855;BME280;9053;53.358;6.382;2023-05-24T11:37:01;102423.16;;;16.71;78.30
17855;BME280;9053;53.358;6.382;2023-05-24T11:39:33;102421.16;;;16.65;77.85
17855;BME280;9053;53.358;6.382;2023-05-24T11:42:05;102420.34;;;16.66;77.74
17855;BME280;9053;53.358;6.382;2023-05-24T11:44:35;102421.25;;;16.68;77.81
17855;BME280;9053;53.358;6.382;2023-05-24T11:47:07;102411.44;;;16.65;77.93
17855;BME280;9053;53.358;6.382;2023-05-24T11:49:37;102422.06;;;16.65;78.23
17855;BME280;9053;53.358;6.382;2023-05-24T11:52:10;102412.63;;;16.74;78.29
17855;BME280;9053;53.358;6.382;2023-05-24T11:54:43;102416.09;;;16.73;78.20
17855;BME280;9053;53.358;6.382;2023-05-24T11:57:14;102420.59;;;16.74;78.03
17855;BME280;9053;53.358;6.382;2023-05-24T11:59:45;102421.50;;;16.74;77.49
17855;BME280;9053;53.358;6.382;2023-05-24T12:02:15;102422.19;;;16.69;77.58
17855;BME280;9053;53.358;6.382;2023-05-24T12:04:45;102425.59;;;16.64;77.81
17855;BME280;9053;53.358;6.382;2023-05-24T12:07:18;102431.75;;;16.63;77.52
17855;BME280;9053;53.358;6.382;2023-05-24T12:09:47;102424.69;;;16.64;77.67
17855;BME280;9053;53.358;6.382;2023-05-24T12:12:17;102423.28;;;16.75;77.73
17855;BME280;9053;53.358;6.382;2023-05-24T12:15:01;102435.97;;;16.82;77.65
17855;BME280;9053;53.358;6.382;2023-05-24T12:17:32;102437.78;;;16.83;77.19
17855;BME280;9053;53.358;6.382;2023-05-24T12:20:03;102431.44;;;16.80;77.09
17855;BME280;9053;53.358;6.382;2023-05-24T12:22:37;102435.88;;;16.79;77.12
17855;BME280;9053;53.358;6.382;2023-05-24T12:25:08;102440.19;;;16.77;76.99
17855;BME280;9053;53.358;6.382;2023-05-24T12:27:42;102432.97;;;16.73;76.95
17855;BME280;9053;53.358;6.382;2023-05-24T12:30:15;102449.84;;;16.75;77.41
17855;BME280;9053;53.358;6.382;2023-05-24T12:32:47;102443.59;;;16.73;77.79
17855;BME280;9053;53.358;6.382;2023-05-24T12:35:17;102439.03;;;16.69;78.21
17855;BME280;9053;53.358;6.382;2023-05-24T12:37:57;102439.22;;;16.75;78.24
17855;BME280;9053;53.358;6.382;2023-05-24T12:40:31;102439.38;;;16.78;78.48
17855;BME280;9053;53.358;6.382;2023-05-24T12:43:03;102435.47;;;16.69;78.08
17855;BME280;9053;53.358;6.382;2023-05-24T12:45:33;102444.19;;;16.64;78.32
17855;BME280;9053;53.358;6.382;2023-05-24T12:48:04;102438.06;;;16.67;78.44
17855;BME280;9053;53.358;6.382;2023-05-24T12:50:34;102437.88;;;16.61;78.26
17855;BME280;9053;53.358;6.382;2023-05-24T12:53:07;102437.63;;;16.55;78.31
17855;BME280;9053;53.358;6.382;2023-05-24T12:55:39;102442.13;;;16.56;78.55
17855;BME280;9053;53.358;6.382;2023-05-24T12:58:09;102440.63;;;16.64;78.37
17855;BME280;9053;53.358;6.382;2023-05-24T13:00:42;102433.38;;;16.60;77.85
17855;BME280;9053;53.358;6.382;2023-05-24T13:03:16;102438.06;;;16.67;78.55
17855;BME280;9053;53.358;6.382;2023-05-24T13:05:46;102439.03;;;16.69;78.23
17855;BME280;9053;53.358;6.382;2023-05-24T13:08:19;102434.59;;;16.70;78.59
17855;BME280;9053;53.358;6.382;2023-05-24T13:10:49;102444.44;;;16.72;78.40
17855;BME280;9053;53.358;6.382;2023-05-24T13:13:21;102440.00;;;16.71;78.20
17855;BME280;9053;53.358;6.382;2023-05-24T13:15:54;102450.78;;;16.76;78.27
17855;BME280;9053;53.358;6.382;2023-05-24T13:18:24;102449.22;;;16.81;77.98
17855;BME280;9053;53.358;6.382;2023-05-24T13:20:54;102437.38;;;16.73;77.92
17855;BME280;9053;53.358;6.382;2023-05-24T13:23:28;102438.44;;;16.78;77.86
17855;BME280;9053;53.358;6.382;2023-05-24T13:25:58;102439.91;;;16.70;77.74
17855;BME280;9053;53.358;6.382;2023-05-24T13:28:29;102436.81;;;16.56;77.59
17855;BME280;9053;53.358;6.382;2023-05-24T13:30:59;102434.03;;;16.53;77.70
17855;BME280;9053;53.358;6.382;2023-05-24T13:33:30;102437.59;;;16.53;78.16
17855;BME280;9053;53.358;6.382;2023-05-24T13:36:00;102434.97;;;16.55;78.51
17855;BME280;9053;53.358;6.382;2023-05-24T13:38:32;102434.88;;;16.52;78.42
17855;BME280;9053;53.358;6.382;2023-05-24T13:41:02;102436.00;;;16.58;78.55
17855;BME280;9053;53.358;6.382;2023-05-24T13:43:32;102443.38;;;16.67;78.13
17855;BME280;9053;53.358;6.382;2023-05-24T13:46:02;102446.94;;;16.67;78.09
17855;BME280;9053;53.358;6.382;2023-05-24T13:48:33;102446.03;;;16.67;78.11
17855;BME280;9053;53.358;6.382;2023-05-24T13:51:06;102443.38;;;16.67;78.22
17855;BME280;9053;53.358;6.382;2023-05-24T13:53:39;102443.22;;;16.62;78.02
17855;BME280;9053;53.358;6.382;2023-05-24T13:56:09;102442.22;;;16.59;77.94
17855;BME280;9053;53.358;6.382;2023-05-24T13:58:39;102438.41;;;16.51;77.79
17855;BME280;9053;53.358;6.382;2023-05-24T14:01:12;102434.81;;;16.50;78.13